Tarrant, Alabama
Current Conditions -  °F | °C
As of 7:53 AM on Monday 24 Nov 2014 (Local Time) from KBHM Reporting Station
Broken Clouds Broken Clouds  
Wind Chill: 65°   Ceiling: 1900
Heat Index: 65°   Visibility: 10mi
Dew Point: 58°   Wind: 14mph
Humidity: 78%   Direction: 230°SW
Pressure: 29.8"   Gusts: 20mph
Location:  33.605°N, 86.7592°W
Report Text: KBHM 241353Z 23012G17KT 10SM BKN019 18/14 A2980 RMK AO2 SLP085 T01830144
Loading
Personal Weather Stations






























Interactive Weather Map New forecast layout! Learn more

10-Day Weather Forecast

Advertisements
Track Severe Weather on mobile